Time;durP1;ratioP1;P1;durP2;ratioP2;P2;SDS_P1;SDS_P2;PMS_P1;PMS_P2;Temp;Humidity;BMP_temperature;BMP_pressure;BME280_temperature;BME280_humidity;BME280_pressure;Samples;Min_cycle;Max_cycle;Signal;HPM_P1;HPM_P2
2021/12/06 00:01:41;;;;;;;0.50;0.50;;;2.30;99.90;;;;;;5225577;28;20028;-74
2021/12/06 00:04:25;;;;;;;0.75;0.75;;;2.30;99.90;;;;;;5242282;28;20039;-75
2021/12/06 00:07:06;;;;;;;0.40;0.40;;;2.30;99.90;;;;;;5257497;28;20050;-74
2021/12/06 00:09:48;;;;;;;0.50;0.50;;;2.30;99.90;;;;;;5263176;28;20035;-74
2021/12/06 00:12:22;;;;;;;0.90;0.90;;;2.30;99.90;;;;;;5245655;28;20091;-74
2021/12/06 00:14:55;;;;;;;0.77;0.77;;;2.30;99.90;;;;;;5262268;28;20597;-75
2021/12/06 00:17:26;;;;;;;0.50;0.50;;;2.40;99.90;;;;;;5259412;28;20020;-74
2021/12/06 00:20:00;;;;;;;0.70;0.70;;;2.30;99.90;;;;;;5261184;28;20031;-74
2021/12/06 00:22:32;;;;;;;0.60;0.60;;;2.30;99.90;;;;;;5262367;28;20199;-74
2021/12/06 00:25:10;;;;;;;0.55;0.55;;;2.30;99.90;;;;;;5262946;28;20043;-74
2021/12/06 00:27:42;;;;;;;0.57;0.57;;;2.30;99.90;;;;;;5241781;28;20040;-75
2021/12/06 00:30:16;;;;;;;0.50;0.50;;;2.30;99.90;;;;;;5242145;28;20225;-75
2021/12/06 00:32:47;;;;;;;0.57;0.57;;;2.30;99.90;;;;;;5241319;28;20031;-74
2021/12/06 00:35:22;;;;;;;0.50;0.50;;;2.20;99.90;;;;;;5253187;28;20122;-75
2021/12/06 00:37:58;;;;;;;0.47;0.47;;;2.20;99.90;;;;;;5254062;28;20108;-74
2021/12/06 00:40:46;;;;;;;0.60;0.60;;;2.20;99.90;;;;;;5250646;28;20110;-73
2021/12/06 00:43:22;;;;;;;0.70;0.70;;;2.20;99.90;;;;;;5261457;28;20032;-75
2021/12/06 00:45:58;;;;;;;0.50;0.50;;;2.10;99.90;;;;;;5259310;28;20032;-75
2021/12/06 00:48:29;;;;;;;0.30;0.30;;;2.20;99.90;;;;;;5253819;28;20036;-76
2021/12/06 00:51:06;;;;;;;0.75;0.75;;;2.10;99.90;;;;;;5262629;28;20028;-75
2021/12/06 00:53:40;;;;;;;0.50;0.50;;;2.10;99.90;;;;;;5245954;28;20404;-74
2021/12/06 00:56:17;;;;;;;0.73;0.73;;;2.10;99.90;;;;;;5246802;28;20070;-74
2021/12/06 00:58:48;;;;;;;0.47;0.47;;;2.10;99.90;;;;;;5262413;28;20027;-74
2021/12/06 01:01:20;;;;;;;0.63;0.63;;;2.10;99.90;;;;;;5261300;28;20067;-74
2021/12/06 01:03:53;;;;;;;0.65;0.65;;;2.10;99.90;;;;;;5262369;28;20065;-74
2021/12/06 01:06:34;;;;;;;0.70;0.70;;;2.10;99.90;;;;;;5240840;28;20680;-73
2021/12/06 01:09:10;;;;;;;0.40;0.40;;;2.10;99.90;;;;;;5225355;28;20059;-74
2021/12/06 01:11:46;;;;;;;0.38;0.38;;;2.00;99.90;;;;;;5254213;28;20028;-74
2021/12/06 01:14:22;;;;;;;0.50;0.50;;;2.10;99.90;;;;;;5260691;28;20024;-74
2021/12/06 01:16:58;;;;;;;0.52;0.52;;;2.00;99.90;;;;;;5265453;28;20523;-75
2021/12/06 01:19:30;;;;;;;0.40;0.40;;;2.10;99.90;;;;;;5263976;28;20261;-74
2021/12/06 01:24:43;;;;;;;0.93;0.93;;;2.00;99.90;;;;;;5262592;28;20028;-74
2021/12/06 01:40:29;;;;;;;0.40;0.40;;;2.00;99.90;;;;;;5243534;28;20391;-75
2021/12/06 01:43:05;;;;;;;0.60;0.60;;;2.00;99.90;;;;;;5243724;28;20372;-75
2021/12/06 01:45:41;;;;;;;0.70;0.70;;;2.00;99.90;;;;;;5262962;28;20093;-74
2021/12/06 01:48:12;;;;;;;0.60;0.60;;;2.10;99.90;;;;;;5244219;28;20067;-74
2021/12/06 01:50:48;;;;;;;0.95;0.95;;;2.10;99.90;;;;;;5264197;28;20327;-75
2021/12/06 01:53:22;;;;;;;0.68;0.68;;;2.10;99.90;;;;;;5266912;28;20023;-76
2021/12/06 01:55:57;;;;;;;0.77;0.77;;;2.10;99.90;;;;;;5266126;28;20232;-74
2021/12/06 01:58:28;;;;;;;0.55;0.55;;;2.10;99.90;;;;;;5248546;28;20272;-74
2021/12/06 02:01:01;;;;;;;0.40;0.40;;;2.10;99.90;;;;;;5232146;28;20505;-74
2021/12/06 02:03:37;;;;;;;0.50;0.50;;;2.10;99.90;;;;;;5246993;28;20366;-74
2021/12/06 02:06:10;;;;;;;1.35;1.30;;;2.10;99.90;;;;;;5241576;28;20350;-74
2021/12/06 02:08:46;;;;;;;0.95;0.95;;;2.00;99.90;;;;;;5245203;28;20161;-74
2021/12/06 02:11:24;;;;;;;0.40;0.40;;;2.00;99.90;;;;;;5254315;28;20039;-73
2021/12/06 02:14:23;;;;;;;0.55;0.55;;;2.00;99.90;;;;;;5253987;28;20029;-74
2021/12/06 02:19:48;;;;;;;0.40;0.40;;;2.00;99.90;;;;;;5266000;28;20019;-74
2021/12/06 02:22:26;;;;;;;0.88;0.88;;;2.00;99.90;;;;;;5248414;28;20036;-74
2021/12/06 02:24:58;;;;;;;0.52;0.52;;;2.00;99.90;;;;;;5265363;28;20055;-74
2021/12/06 02:27:32;;;;;;;0.40;0.40;;;2.00;99.90;;;;;;5248034;28;20068;-74
2021/12/06 02:30:09;;;;;;;0.68;0.68;;;2.10;99.90;;;;;;5244699;28;20077;-74
2021/12/06 02:32:47;;;;;;;0.55;0.55;;;2.10;99.90;;;;;;5243575;28;20059;-74
2021/12/06 02:35:27;;;;;;;0.85;0.85;;;2.10;99.90;;;;;;5230398;28;20047;-73
2021/12/06 02:38:02;;;;;;;0.55;0.55;;;2.20;99.90;;;;;;5243675;28;20028;-74
2021/12/06 02:40:38;;;;;;;0.40;0.40;;;2.20;99.90;;;;;;5246222;28;20035;-74
2021/12/06 02:43:15;;;;;;;0.60;0.60;;;2.20;99.90;;;;;;5262825;28;20024;-74
2021/12/06 02:45:53;;;;;;;0.52;0.52;;;2.20;99.90;;;;;;5230845;28;20374;-74
2021/12/06 02:48:32;;;;;;;0.50;0.50;;;2.20;99.90;;;;;;5241933;28;20052;-74
2021/12/06 02:51:08;;;;;;;0.40;0.40;;;2.20;99.90;;;;;;5225909;28;20352;-74
2021/12/06 02:53:40;;;;;;;0.52;0.52;;;2.20;99.90;;;;;;5227376;28;20565;-74
2021/12/06 02:56:33;;;;;;;1.52;1.48;;;2.20;99.90;;;;;;5229096;28;20048;-73
2021/12/06 02:59:09;;;;;;;1.05;1.05;;;2.10;99.90;;;;;;5214713;28;20060;-73
2021/12/06 03:01:49;;;;;;;0.57;0.57;;;2.10;99.90;;;;;;5243936;28;20040;-74
2021/12/06 03:04:25;;;;;;;0.60;0.60;;;2.10;99.90;;;;;;5242879;28;20024;-73
2021/12/06 03:06:58;;;;;;;0.68;0.68;;;2.10;99.90;;;;;;5254145;28;20083;-74
2021/12/06 03:09:37;;;;;;;2.47;2.20;;;2.10;99.90;;;;;;5264546;28;20030;-74
2021/12/06 03:12:14;;;;;;;0.75;0.75;;;2.10;99.90;;;;;;5260680;28;20059;-75
2021/12/06 03:14:56;;;;;;;1.05;1.05;;;2.10;99.90;;;;;;5263168;28;20427;-74
2021/12/06 03:17:37;;;;;;;0.60;0.60;;;2.10;99.90;;;;;;5264670;28;20035;-74
2021/12/06 03:20:13;;;;;;;0.60;0.60;;;2.10;99.90;;;;;;5267612;28;20024;-74
2021/12/06 03:22:50;;;;;;;0.50;0.50;;;2.10;99.90;;;;;;5265209;28;20054;-74
2021/12/06 03:25:23;;;;;;;0.63;0.63;;;2.10;99.90;;;;;;5265860;28;20112;-73
2021/12/06 03:27:54;;;;;;;0.88;0.88;;;2.10;99.90;;;;;;5259040;28;20070;-75
2021/12/06 03:30:29;;;;;;;0.55;0.55;;;2.10;99.90;;;;;;5264010;28;20284;-76
2021/12/06 03:33:03;;;;;;;0.52;0.52;;;2.10;99.90;;;;;;5261725;28;20036;-75
2021/12/06 03:35:34;;;;;;;0.60;0.60;;;2.10;99.90;;;;;;5262227;28;20040;-74
2021/12/06 03:38:05;;;;;;;0.50;0.50;;;2.20;99.90;;;;;;5279884;28;20047;-74
2021/12/06 03:40:38;;;;;;;0.98;0.98;;;2.20;99.90;;;;;;5258995;28;20091;-74
2021/12/06 03:43:14;;;;;;;0.90;0.90;;;2.20;99.90;;;;;;5230072;28;20473;-75
2021/12/06 03:45:53;;;;;;;0.60;0.60;;;2.20;99.90;;;;;;5264068;28;20040;-75
2021/12/06 03:48:26;;;;;;;1.30;1.20;;;2.20;99.90;;;;;;5263347;28;20032;-74
2021/12/06 03:50:57;;;;;;;0.52;0.52;;;2.20;99.90;;;;;;5264287;28;20031;-74
2021/12/06 03:53:29;;;;;;;0.50;0.50;;;2.20;99.90;;;;;;5267377;28;20039;-74
2021/12/06 03:56:09;;;;;;;0.50;0.50;;;2.20;99.90;;;;;;5251322;28;20045;-74
2021/12/06 03:58:40;;;;;;;0.45;0.45;;;2.20;99.90;;;;;;5244123;28;20031;-74
2021/12/06 04:01:16;;;;;;;1.00;1.00;;;2.30;99.90;;;;;;5242156;28;20028;-75
2021/12/06 04:03:50;;;;;;;0.50;0.50;;;2.20;99.90;;;;;;5257447;28;20036;-75
2021/12/06 04:06:24;;;;;;;0.50;0.50;;;2.20;99.90;;;;;;5256898;28;20051;-74
2021/12/06 04:08:57;;;;;;;0.60;0.60;;;2.30;99.90;;;;;;5262425;28;20039;-75
2021/12/06 04:11:28;;;;;;;0.80;0.80;;;2.20;99.90;;;;;;5260935;28;20497;-76
2021/12/06 04:14:00;;;;;;;0.40;0.40;;;2.20;99.90;;;;;;5263623;28;20074;-75
2021/12/06 04:16:34;;;;;;;0.63;0.63;;;2.20;99.90;;;;;;5245758;28;20025;-75
2021/12/06 04:19:07;;;;;;;0.70;0.70;;;2.20;99.90;;;;;;5242991;28;20054;-75
2021/12/06 04:21:41;;;;;;;0.57;0.57;;;2.20;99.90;;;;;;5243077;28;20559;-74
2021/12/06 04:24:15;;;;;;;1.42;1.42;;;2.20;99.90;;;;;;5241698;28;20027;-74
2021/12/06 04:26:54;;;;;;;;;;;2.20;99.90;;;;;;5261674;28;20032;-74
2021/12/06 04:29:28;;;;;;;0.70;0.70;;;2.20;99.90;;;;;;5262748;28;19943;-74
2021/12/06 04:32:01;;;;;;;1.90;1.80;;;2.30;99.90;;;;;;5262910;28;20374;-74
2021/12/06 04:34:32;;;;;;;0.63;0.63;;;2.20;99.90;;;;;;5263532;28;20213;-75
2021/12/06 04:37:06;;;;;;;0.60;0.60;;;2.20;99.90;;;;;;5263059;28;20063;-74
2021/12/06 04:39:38;;;;;;;0.60;0.60;;;2.20;99.90;;;;;;5262712;28;20404;-75
2021/12/06 04:42:09;;;;;;;0.70;0.70;;;2.20;99.90;;;;;;5262844;28;20092;-74
2021/12/06 04:44:42;;;;;;;0.70;0.70;;;2.20;99.90;;;;;;5230191;28;20040;-74
2021/12/06 04:47:15;;;;;;;1.27;1.27;;;2.20;99.90;;;;;;5242835;28;20638;-75
2021/12/06 04:49:51;;;;;;;0.60;0.60;;;2.30;99.90;;;;;;5223464;28;20071;-75
2021/12/06 04:52:26;;;;;;;0.55;0.55;;;2.30;99.90;;;;;;5241904;28;20399;-74
2021/12/06 04:55:03;;;;;;;0.45;0.45;;;2.30;99.90;;;;;;5259738;28;20439;-75
2021/12/06 04:57:45;;;;;;;0.68;0.68;;;2.20;99.90;;;;;;5245089;28;20036;-74
2021/12/06 05:00:48;;;;;;;0.65;0.65;;;2.30;99.90;;;;;;5228189;28;20087;-75
2021/12/06 05:03:22;;;;;;;0.90;0.90;;;2.30;99.90;;;;;;5222956;28;20037;-75
2021/12/06 05:06:09;;;;;;;1.17;1.17;;;2.30;99.90;;;;;;5222527;28;20203;-75
2021/12/06 05:08:49;;;;;;;0.60;0.60;;;2.30;99.90;;;;;;5238875;28;20052;-74
2021/12/06 05:11:24;;;;;;;1.00;1.00;;;2.30;99.90;;;;;;5219304;28;20029;-75
2021/12/06 05:14:00;;;;;;;0.50;0.50;;;2.30;99.90;;;;;;5219376;28;20185;-74
2021/12/06 05:16:35;;;;;;;0.50;0.50;;;2.30;99.90;;;;;;5203834;28;20045;-74
2021/12/06 05:19:06;;;;;;;1.10;1.10;;;2.30;99.90;;;;;;5219150;28;20049;-74
2021/12/06 05:21:41;;;;;;;1.45;1.35;;;2.30;99.90;;;;;;5218957;28;20033;-76
2021/12/06 05:24:15;;;;;;;0.50;0.50;;;2.30;99.90;;;;;;5219446;28;20049;-75
2021/12/06 05:26:48;;;;;;;0.98;0.98;;;2.30;99.90;;;;;;5222884;28;20071;-74
2021/12/06 05:29:35;;;;;;;0.47;0.47;;;2.30;99.90;;;;;;5231403;28;20601;-73
2021/12/06 05:32:06;;;;;;;1.52;1.42;;;2.30;99.90;;;;;;5233481;28;20025;-73
2021/12/06 05:34:41;;;;;;;0.65;0.65;;;2.30;99.90;;;;;;5225389;28;20238;-73
2021/12/06 05:37:17;;;;;;;0.75;0.75;;;2.30;99.90;;;;;;5242700;28;20597;-74
2021/12/06 05:39:48;;;;;;;0.50;0.50;;;2.30;99.90;;;;;;5259801;28;20039;-74
2021/12/06 05:42:19;;;;;;;1.98;1.88;;;2.30;99.90;;;;;;5298838;27;20057;-74
2021/12/06 05:44:51;;;;;;;0.73;0.73;;;2.30;99.90;;;;;;5289797;27;20034;-74
2021/12/06 05:47:24;;;;;;;0.88;0.88;;;2.30;99.90;;;;;;5275126;27;20067;-75
2021/12/06 05:50:00;;;;;;;0.68;0.68;;;2.30;99.90;;;;;;5293426;27;20100;-73
2021/12/06 05:52:34;;;;;;;0.50;0.50;;;2.20;99.90;;;;;;5291254;27;20328;-73
2021/12/06 05:55:14;;;;;;;1.75;1.40;;;2.20;99.90;;;;;;5306417;27;20023;-74
2021/12/06 05:57:50;;;;;;;0.77;0.77;;;2.20;99.90;;;;;;5271671;28;20027;-74
2021/12/06 06:00:23;;;;;;;0.60;0.60;;;2.30;99.90;;;;;;5273996;27;20022;-74
2021/12/06 06:02:54;;;;;;;0.73;0.63;;;2.30;99.90;;;;;;5315897;27;20038;-76
2021/12/06 06:05:28;;;;;;;0.90;0.90;;;2.20;99.90;;;;;;5307606;27;20026;-74
2021/12/06 06:08:03;;;;;;;0.70;0.70;;;2.30;99.90;;;;;;5264966;27;20023;-73
2021/12/06 06:10:40;;;;;;;0.70;0.70;;;2.30;99.90;;;;;;5270890;27;20046;-73
2021/12/06 06:13:11;;;;;;;0.68;0.68;;;2.30;99.90;;;;;;5278079;27;20091;-74
2021/12/06 06:15:47;;;;;;;0.55;0.55;;;2.30;99.90;;;;;;5277612;27;20501;-74
2021/12/06 06:18:21;;;;;;;0.70;0.70;;;2.30;99.90;;;;;;5284053;27;20031;-74
2021/12/06 06:20:56;;;;;;;0.88;0.88;;;2.40;99.90;;;;;;5282700;27;20031;-74
2021/12/06 06:23:28;;;;;;;0.82;0.82;;;2.40;99.90;;;;;;5275382;27;20038;-74
2021/12/06 06:26:02;;;;;;;0.77;0.77;;;2.40;99.90;;;;;;5273537;27;20043;-74
2021/12/06 06:28:33;;;;;;;1.00;1.00;;;2.40;99.90;;;;;;5290083;27;20114;-74
2021/12/06 06:31:04;;;;;;;0.70;0.70;;;2.40;99.90;;;;;;5273873;27;20484;-74
2021/12/06 06:33:38;;;;;;;1.02;1.02;;;2.40;99.90;;;;;;5306504;27;20019;-74
2021/12/06 06:36:19;;;;;;;0.80;0.80;;;2.50;99.90;;;;;;5289131;27;20033;-74
2021/12/06 06:38:53;;;;;;;0.73;0.73;;;2.50;99.90;;;;;;5272479;27;20620;-74
2021/12/06 06:41:25;;;;;;;0.80;0.80;;;2.50;99.90;;;;;;5268145;27;20058;-74
2021/12/06 06:43:59;;;;;;;0.70;0.70;;;2.40;99.90;;;;;;5237396;28;20039;-74
2021/12/06 06:46:30;;;;;;;0.52;0.52;;;2.40;99.90;;;;;;5227119;28;20025;-74
2021/12/06 06:49:05;;;;;;;0.50;0.50;;;2.40;99.90;;;;;;5228130;28;20072;-74
2021/12/06 06:51:40;;;;;;;1.17;1.17;;;2.50;99.90;;;;;;5248132;28;20051;-74
2021/12/06 06:54:15;;;;;;;0.90;0.90;;;2.50;99.90;;;;;;5263658;28;20341;-74
2021/12/06 06:56:48;;;;;;;0.60;0.60;;;2.50;99.90;;;;;;5234416;28;20045;-74
2021/12/06 06:59:20;;;;;;;0.75;0.75;;;2.50;99.90;;;;;;5249981;28;20040;-75
2021/12/06 07:01:53;;;;;;;0.50;0.50;;;2.50;99.90;;;;;;5245565;28;20060;-74
2021/12/06 07:04:24;;;;;;;0.88;0.88;;;2.50;99.90;;;;;;5263355;28;20189;-74
2021/12/06 07:07:03;;;;;;;0.77;0.77;;;2.50;99.90;;;;;;5244308;28;20032;-74
2021/12/06 07:09:38;;;;;;;0.88;0.88;;;2.60;99.90;;;;;;5243684;28;20103;-75
2021/12/06 07:12:17;;;;;;;0.70;0.70;;;2.60;99.90;;;;;;5253474;28;20050;-76
2021/12/06 07:14:58;;;;;;;0.60;0.60;;;2.60;99.90;;;;;;5258481;28;20027;-74
2021/12/06 07:17:35;;;;;;;0.65;0.65;;;2.60;99.90;;;;;;5270441;28;20038;-74
2021/12/06 07:20:07;;;;;;;1.05;1.05;;;2.70;99.90;;;;;;5259777;28;20606;-75
2021/12/06 07:22:52;;;;;;;0.77;0.77;;;2.70;99.90;;;;;;5238591;28;20171;-74
2021/12/06 07:25:26;;;;;;;0.60;0.60;;;2.70;99.90;;;;;;5264956;28;20226;-76
2021/12/06 07:28:07;;;;;;;0.47;0.47;;;2.70;99.90;;;;;;5247566;28;20024;-74
2021/12/06 07:30:40;;;;;;;0.70;0.70;;;2.70;99.90;;;;;;5261279;28;20047;-74
2021/12/06 07:33:13;;;;;;;0.90;0.90;;;2.80;99.90;;;;;;5260900;28;20028;-75
2021/12/06 07:35:44;;;;;;;0.68;0.68;;;2.80;99.90;;;;;;5263941;28;20032;-75
2021/12/06 07:38:15;;;;;;;0.75;0.75;;;2.80;99.90;;;;;;5264706;28;20035;-74
2021/12/06 07:40:50;;;;;;;0.45;0.45;;;2.80;99.90;;;;;;5286931;27;20084;-78
2021/12/06 07:43:22;;;;;;;0.50;0.50;;;2.80;99.90;;;;;;5308571;27;20090;-76
2021/12/06 07:45:53;;;;;;;2.20;2.10;;;2.90;99.90;;;;;;5286841;27;20031;-74
2021/12/06 07:48:24;;;;;;;0.50;0.50;;;2.90;99.90;;;;;;5287865;27;20117;-74
2021/12/06 07:50:56;;;;;;;0.80;0.80;;;3.00;99.90;;;;;;5276281;27;20073;-76
2021/12/06 07:53:30;;;;;;;1.65;1.55;;;3.00;99.90;;;;;;5301241;27;20038;-74
2021/12/06 07:56:01;;;;;;;0.45;0.45;;;3.00;99.90;;;;;;5306181;27;20199;-75
2021/12/06 07:58:35;;;;;;;1.00;1.00;;;3.00;99.90;;;;;;5284525;27;20373;-75
2021/12/06 08:01:08;;;;;;;0.85;0.82;;;3.00;99.90;;;;;;5297629;27;20044;-75
2021/12/06 08:03:41;;;;;;;0.60;0.60;;;3.00;99.90;;;;;;5275182;27;20042;-74
2021/12/06 08:06:17;;;;;;;0.70;0.70;;;3.10;99.90;;;;;;5304924;27;20037;-74
2021/12/06 08:08:51;;;;;;;0.60;0.60;;;3.10;99.90;;;;;;5283274;27;20096;-74
2021/12/06 08:11:22;;;;;;;0.85;0.85;;;3.10;99.90;;;;;;5295068;27;20020;-76
2021/12/06 08:14:06;;;;;;;0.98;0.98;;;3.10;99.90;;;;;;5300305;27;20271;-74
2021/12/06 08:16:43;;;;;;;0.52;0.52;;;3.10;99.90;;;;;;5277114;28;20043;-75
2021/12/06 08:19:18;;;;;;;0.60;0.60;;;3.10;99.90;;;;;;5279467;27;20051;-75
2021/12/06 08:21:56;;;;;;;;;;;3.20;99.90;;;;;;5300257;27;20031;-75
2021/12/06 08:24:30;;;;;;;0.40;0.40;;;3.20;99.90;;;;;;5304105;27;20138;-75
2021/12/06 08:27:04;;;;;;;0.73;0.73;;;3.20;99.90;;;;;;5296377;27;20101;-75
2021/12/06 08:29:39;;;;;;;0.63;0.63;;;3.20;99.90;;;;;;5297600;27;20064;-76
2021/12/06 08:32:11;;;;;;;0.70;0.70;;;3.30;99.90;;;;;;5311733;27;20034;-74
2021/12/06 08:34:42;;;;;;;1.30;1.23;;;3.30;99.90;;;;;;5293787;27;20546;-75
2021/12/06 08:37:16;;;;;;;0.40;0.40;;;3.30;99.90;;;;;;5313737;27;20098;-75
2021/12/06 08:39:52;;;;;;;0.63;0.63;;;3.30;99.90;;;;;;5305265;27;20019;-74
2021/12/06 08:42:29;;;;;;;1.90;1.80;;;3.40;99.90;;;;;;5310845;27;20031;-74
2021/12/06 08:45:00;;;;;;;0.50;0.50;;;3.40;99.90;;;;;;5303149;27;20035;-75
2021/12/06 08:47:39;;;;;;;0.65;0.65;;;3.50;99.90;;;;;;5296558;27;20441;-74
2021/12/06 08:50:19;;;;;;;0.70;0.70;;;3.60;99.90;;;;;;5275424;28;20031;-76
2021/12/06 08:52:57;;;;;;;0.57;0.57;;;3.60;99.90;;;;;;5292200;27;20027;-75
2021/12/06 08:55:33;;;;;;;0.98;0.98;;;3.60;99.90;;;;;;5285170;27;20047;-75
2021/12/06 08:58:06;;;;;;;0.60;0.60;;;3.70;99.90;;;;;;5292801;27;20035;-74
2021/12/06 09:00:38;;;;;;;1.15;1.15;;;3.80;99.90;;;;;;5282844;27;20112;-73
2021/12/06 09:03:13;;;;;;;0.70;0.70;;;3.80;99.90;;;;;;5286857;27;20384;-74
2021/12/06 09:05:50;;;;;;;0.90;0.90;;;3.80;99.90;;;;;;5285302;27;20043;-74
2021/12/06 09:08:24;;;;;;;0.50;0.50;;;3.90;99.90;;;;;;5285028;28;20054;-74
2021/12/06 09:10:58;;;;;;;0.68;0.68;;;4.10;99.90;;;;;;5283093;28;20027;-74
2021/12/06 09:13:34;;;;;;;0.75;0.75;;;4.40;99.90;;;;;;5285283;27;20341;-74
2021/12/06 09:16:10;;;;;;;0.75;0.75;;;4.50;99.90;;;;;;5282490;28;20035;-74
2021/12/06 09:18:46;;;;;;;1.23;1.23;;;4.60;99.90;;;;;;5284119;28;20066;-75
2021/12/06 09:21:21;;;;;;;0.52;0.52;;;4.60;99.90;;;;;;5267218;28;20035;-74
2021/12/06 09:23:55;;;;;;;0.45;0.45;;;4.50;99.90;;;;;;5282867;28;20023;-74
2021/12/06 09:26:28;;;;;;;0.60;0.60;;;4.60;99.90;;;;;;5278816;28;20067;-73
2021/12/06 09:29:00;;;;;;;1.27;1.17;;;4.70;99.90;;;;;;5262035;28;20043;-74
2021/12/06 09:31:33;;;;;;;0.77;0.77;;;4.70;99.90;;;;;;5261838;28;20035;-76
2021/12/06 09:34:07;;;;;;;0.50;0.50;;;4.80;99.90;;;;;;5275203;28;20035;-74
2021/12/06 09:36:41;;;;;;;0.60;0.60;;;4.90;99.90;;;;;;5283002;28;20030;-75
2021/12/06 09:39:14;;;;;;;10.50;2.10;;;4.80;99.90;;;;;;5302309;28;20216;-75
2021/12/06 09:41:47;;;;;;;0.70;0.70;;;4.90;99.90;;;;;;5251666;28;20064;-75
2021/12/06 09:44:21;;;;;;;0.73;0.73;;;4.70;99.90;;;;;;5261265;28;20035;-75
2021/12/06 09:46:52;;;;;;;1.10;1.10;;;4.80;99.90;;;;;;5238927;28;20040;-75
2021/12/06 09:49:24;;;;;;;0.70;0.70;;;5.20;99.90;;;;;;5228215;28;20044;-74
2021/12/06 09:52:05;;;;;;;1.15;1.15;;;4.80;99.90;;;;;;5236096;28;20035;-75
2021/12/06 09:54:42;;;;;;;0.70;0.70;;;5.10;99.90;;;;;;5262887;28;20035;-75
2021/12/06 09:57:15;;;;;;;0.80;0.80;;;5.10;99.90;;;;;;5249585;28;20078;-74
2021/12/06 09:59:48;;;;;;;0.60;0.60;;;5.20;99.90;;;;;;5254559;28;20024;-75
2021/12/06 10:02:25;;;;;;;0.80;0.80;;;5.30;99.90;;;;;;5262227;28;20024;-75
2021/12/06 10:04:59;;;;;;;0.75;0.75;;;5.30;99.90;;;;;;5253694;28;20047;-74
2021/12/06 10:07:31;;;;;;;0.95;0.95;;;5.00;99.90;;;;;;5260997;28;20056;-75
2021/12/06 10:10:11;;;;;;;0.60;0.60;;;4.70;99.90;;;;;;5262281;28;20103;-74
2021/12/06 10:12:51;;;;;;;0.70;0.70;;;4.80;99.90;;;;;;5261810;28;20032;-75
2021/12/06 10:15:27;;;;;;;0.80;0.80;;;4.50;99.90;;;;;;5250285;28;20205;-74
2021/12/06 10:18:01;;;;;;;0.60;0.60;;;4.40;99.90;;;;;;5246133;28;20047;-74
2021/12/06 10:20:32;;;;;;;1.25;1.25;;;4.30;99.90;;;;;;5272733;28;20052;-75
2021/12/06 10:23:03;;;;;;;0.77;0.77;;;4.40;99.90;;;;;;5262112;28;20039;-76
2021/12/06 10:25:43;;;;;;;0.70;0.70;;;4.40;99.90;;;;;;5265153;28;20023;-74
2021/12/06 10:28:27;;;;;;;0.30;0.30;;;4.50;99.90;;;;;;5264384;28;20036;-76
2021/12/06 10:31:12;;;;;;;0.40;0.40;;;4.20;99.90;;;;;;5245112;28;20059;-75
2021/12/06 10:33:48;;;;;;;;;;;4.40;99.90;;;;;;5264655;28;20086;-75
2021/12/06 10:36:23;;;;;;;0.60;0.60;;;4.50;99.90;;;;;;5265941;28;19911;-75
2021/12/06 10:39:04;;;;;;;1.30;1.30;;;4.40;99.90;;;;;;5248859;28;20032;-74
2021/12/06 10:41:43;;;;;;;0.98;0.98;;;4.30;99.90;;;;;;5287368;28;20023;-75
2021/12/06 10:44:15;;;;;;;0.60;0.60;;;4.40;99.90;;;;;;5270059;28;20319;-75
2021/12/06 10:46:53;;;;;;;0.90;0.90;;;4.30;99.90;;;;;;5287742;28;20225;-76
2021/12/06 10:49:26;;;;;;;0.73;0.73;;;4.20;99.90;;;;;;5268810;28;20274;-75
2021/12/06 10:51:57;;;;;;;0.63;0.63;;;4.10;99.90;;;;;;5267073;28;20031;-74
2021/12/06 10:54:37;;;;;;;0.82;0.82;;;4.30;99.90;;;;;;5270900;28;20171;-75
2021/12/06 10:57:09;;;;;;;0.80;0.80;;;4.20;99.90;;;;;;5285458;27;20120;-74
2021/12/06 10:59:40;;;;;;;0.57;0.57;;;4.20;99.90;;;;;;5286168;28;20215;-74
2021/12/06 11:02:13;;;;;;;0.60;0.60;;;4.20;99.90;;;;;;5290699;27;20031;-74
2021/12/06 11:04:49;;;;;;;0.65;0.65;;;4.20;99.90;;;;;;5271927;28;20094;-74
2021/12/06 11:07:20;;;;;;;1.67;1.58;;;4.10;99.90;;;;;;5268559;28;20024;-74
2021/12/06 11:10:10;;;;;;;0.65;0.65;;;4.00;99.90;;;;;;5285242;28;20027;-75
2021/12/06 11:12:43;;;;;;;0.75;0.75;;;4.00;99.90;;;;;;5264545;28;20479;-75
2021/12/06 11:15:16;;;;;;;0.40;0.40;;;4.10;99.90;;;;;;5264364;28;20561;-75
2021/12/06 11:18:03;;;;;;;0.45;0.45;;;4.20;99.90;;;;;;5263447;28;20051;-74
2021/12/06 11:20:48;;;;;;;0.70;0.70;;;4.20;99.90;;;;;;5259589;28;20024;-74
2021/12/06 11:23:19;;;;;;;;;;;4.00;99.90;;;;;;5267107;28;20027;-75
2021/12/06 11:26:04;;;;;;;0.75;0.75;;;4.10;99.90;;;;;;5283459;28;19972;-76
2021/12/06 11:28:38;;;;;;;;;;;4.00;99.90;;;;;;5280870;28;20589;-75
2021/12/06 11:31:08;;;;;;;0.70;0.70;;;4.00;99.90;;;;;;5280885;28;19996;-75
2021/12/06 11:33:42;;;;;;;0.63;0.63;;;4.00;99.90;;;;;;5267928;28;20575;-74
2021/12/06 11:36:23;;;;;;;1.25;1.25;;;4.10;99.90;;;;;;5285186;27;20035;-75
2021/12/06 11:39:04;;;;;;;0.77;0.77;;;4.10;99.90;;;;;;5267420;28;20507;-75
2021/12/06 11:41:43;;;;;;;0.88;0.88;;;4.10;99.90;;;;;;5286397;27;20072;-75
2021/12/06 11:44:32;;;;;;;1.05;1.05;;;4.10;99.90;;;;;;5293252;27;20034;-75
2021/12/06 11:47:16;;;;;;;0.55;0.55;;;4.10;99.90;;;;;;5285940;27;20218;-74
2021/12/06 11:49:55;;;;;;;1.73;1.70;;;4.20;99.90;;;;;;5284672;28;20050;-74
2021/12/06 11:52:37;;;;;;;0.68;0.68;;;4.10;99.90;;;;;;5285067;28;20299;-75
2021/12/06 11:55:12;;;;;;;0.60;0.60;;;4.20;99.90;;;;;;5284771;28;20035;-75
2021/12/06 11:57:53;;;;;;;2.00;1.90;;;4.30;99.90;;;;;;5285546;28;20028;-74
2021/12/06 12:00:27;;;;;;;1.50;1.08;;;4.50;99.90;;;;;;5285563;28;20031;-75
2021/12/06 12:03:00;;;;;;;0.60;0.60;;;4.60;99.90;;;;;;5266603;28;20099;-73
2021/12/06 12:05:38;;;;;;;0.63;0.63;;;4.60;99.90;;;;;;5270327;28;20027;-76
2021/12/06 12:08:16;;;;;;;2.15;2.05;;;4.50;99.90;;;;;;5267517;28;20112;-76
2021/12/06 12:10:53;;;;;;;0.60;0.60;;;4.40;99.90;;;;;;5283179;28;20442;-76
2021/12/06 12:13:38;;;;;;;0.40;0.40;;;4.30;99.90;;;;;;5271178;28;20108;-76
2021/12/06 12:16:13;;;;;;;1.75;1.65;;;4.40;99.90;;;;;;5268075;28;20023;-76
2021/12/06 12:18:47;;;;;;;0.85;0.85;;;4.40;99.90;;;;;;5280420;28;20277;-75
2021/12/06 12:21:18;;;;;;;2.25;2.05;;;4.50;99.90;;;;;;5285002;28;20039;-75
2021/12/06 12:23:51;;;;;;;0.98;0.98;;;4.50;99.90;;;;;;5285340;28;20031;-75
2021/12/06 12:26:22;;;;;;;0.60;0.60;;;4.50;99.90;;;;;;5284954;28;20023;-75
2021/12/06 12:29:11;;;;;;;0.90;0.90;;;4.40;99.90;;;;;;5284538;28;20314;-75
2021/12/06 12:31:45;;;;;;;1.17;1.17;;;4.40;99.90;;;;;;5270463;28;20055;-75
2021/12/06 12:34:23;;;;;;;0.60;0.60;;;4.40;99.90;;;;;;5275187;28;20046;-75
2021/12/06 12:36:58;;;;;;;0.55;0.55;;;4.40;99.90;;;;;;5265654;28;20062;-75
2021/12/06 12:39:31;;;;;;;0.98;0.98;;;4.30;99.90;;;;;;5260069;28;20283;-74
2021/12/06 12:42:06;;;;;;;0.70;0.70;;;4.30;99.90;;;;;;5264506;28;20414;-75
2021/12/06 12:44:40;;;;;;;0.70;0.70;;;4.30;99.90;;;;;;5263594;28;20076;-74
2021/12/06 12:47:22;;;;;;;1.48;1.45;;;4.50;99.90;;;;;;5267256;28;20218;-74
2021/12/06 12:50:07;;;;;;;0.50;0.50;;;4.40;99.90;;;;;;5260960;28;20019;-74
2021/12/06 12:52:47;;;;;;;0.80;0.80;;;4.40;99.90;;;;;;5244165;28;20096;-75
2021/12/06 12:55:27;;;;;;;0.88;0.88;;;4.50;99.90;;;;;;5249367;28;20241;-77
2021/12/06 12:58:35;;;;;;;0.60;0.60;;;4.40;99.90;;;;;;5245042;28;20304;-76
2021/12/06 13:01:16;;;;;;;0.63;0.63;;;4.60;99.90;;;;;;5203218;28;20037;-76
2021/12/06 13:03:59;;;;;;;0.70;0.70;;;4.60;99.90;;;;;;5203361;28;20245;-76
2021/12/06 13:06:40;;;;;;;0.50;0.50;;;4.80;99.90;;;;;;5203154;28;20037;-74
2021/12/06 13:09:17;;;;;;;0.55;0.55;;;5.00;99.90;;;;;;5199893;28;20041;-76
2021/12/06 13:12:07;;;;;;;1.30;1.30;;;5.10;99.90;;;;;;5212797;28;20044;-75
2021/12/06 13:14:49;;;;;;;0.30;0.30;;;5.00;99.90;;;;;;5187263;28;20056;-75
2021/12/06 13:17:36;;;;;;;0.98;0.98;;;4.80;99.90;;;;;;5217800;28;20044;-74
2021/12/06 13:20:25;;;;;;;0.60;0.60;;;4.80;99.90;;;;;;5203814;28;20032;-75
2021/12/06 13:23:04;;;;;;;1.55;1.50;;;4.60;99.90;;;;;;5206526;28;20117;-75
2021/12/06 13:25:39;;;;;;;0.50;0.50;;;5.00;99.90;;;;;;5190790;28;20087;-75
2021/12/06 13:28:17;;;;;;;0.60;0.60;;;5.10;99.90;;;;;;5187810;28;20036;-75
2021/12/06 13:30:57;;;;;;;0.40;0.40;;;5.20;99.90;;;;;;5201483;28;20064;-74
2021/12/06 13:33:40;;;;;;;0.70;0.70;;;4.90;99.90;;;;;;5219289;28;20100;-74
2021/12/06 13:36:11;;;;;;;0.68;0.68;;;4.80;99.90;;;;;;5188638;28;20053;-74
2021/12/06 13:38:47;;;;;;;1.25;1.25;;;4.70;99.90;;;;;;5265126;28;20370;-74
2021/12/06 13:41:25;;;;;;;0.65;0.65;;;4.70;99.90;;;;;;5248333;28;20044;-74
2021/12/06 13:44:09;;;;;;;0.40;0.40;;;4.30;99.90;;;;;;5269426;28;20036;-75
2021/12/06 13:46:43;;;;;;;0.70;0.70;;;4.00;99.90;;;;;;5262963;28;20510;-74
2021/12/06 13:49:21;;;;;;;0.50;0.50;;;3.90;99.90;;;;;;5267996;28;20096;-74
2021/12/06 13:52:05;;;;;;;0.88;0.88;;;3.90;99.90;;;;;;5261532;28;20024;-74
2021/12/06 13:54:39;;;;;;;0.57;0.57;;;3.90;99.90;;;;;;5265391;28;20020;-74
2021/12/06 13:57:15;;;;;;;0.55;0.55;;;4.00;99.90;;;;;;5266441;28;20024;-74
2021/12/06 14:00:01;;;;;;;0.93;0.93;;;4.00;99.90;;;;;;5264532;28;20203;-74
2021/12/06 14:02:34;;;;;;;0.73;0.73;;;4.10;99.90;;;;;;5265593;28;20028;-74